createdAt,value
2023-03-16T00:02:07.010Z,1.77
2023-03-16T00:04:37.862Z,1.73
2023-03-16T00:07:09.555Z,1.77
2023-03-16T00:09:40.964Z,2.20
2023-03-16T00:12:18.668Z,2.27
2023-03-16T00:14:46.366Z,1.90
2023-03-16T00:17:20.193Z,1.90
2023-03-16T00:19:55.453Z,1.50
2023-03-16T00:22:23.372Z,1.50
2023-03-16T00:24:50.010Z,2.17
2023-03-16T00:27:17.487Z,2.33
2023-03-16T00:29:48.316Z,1.90
2023-03-16T00:32:16.424Z,1.83
2023-03-16T00:34:43.568Z,1.77
2023-03-16T00:37:10.416Z,1.97
2023-03-16T00:39:37.113Z,1.70
2023-03-16T00:42:04.572Z,1.40
2023-03-16T00:44:31.773Z,1.80
2023-03-16T00:46:58.392Z,1.60
2023-03-16T00:49:24.979Z,1.40
2023-03-16T00:51:51.539Z,2.03
2023-03-16T00:54:18.393Z,1.80
2023-03-16T00:56:45.116Z,1.80
2023-03-16T00:59:13.183Z,1.73
2023-03-16T01:01:39.813Z,2.00
2023-03-16T01:04:06.477Z,1.80
2023-03-16T01:06:33.046Z,2.03
2023-03-16T01:08:59.621Z,1.47
2023-03-16T01:11:26.272Z,1.80
2023-03-16T01:13:54.706Z,1.80
2023-03-16T01:16:23.466Z,1.60
2023-03-16T01:18:50.135Z,1.80
2023-03-16T01:21:16.737Z,1.83
2023-03-16T01:23:44.364Z,1.50
2023-03-16T01:26:11.585Z,2.00
2023-03-16T01:28:39.107Z,1.40
2023-03-16T01:31:07.239Z,1.60
2023-03-16T01:33:45.727Z,1.60
2023-03-16T01:36:13.697Z,1.70
2023-03-16T01:38:40.821Z,1.70
2023-03-16T01:41:07.650Z,1.60
2023-03-16T01:43:35.308Z,1.40
2023-03-16T01:46:19.087Z,1.57
2023-03-16T01:55:59.760Z,1.40
2023-03-16T01:58:26.348Z,1.57
2023-03-16T02:00:53.276Z,1.53
2023-03-16T02:03:21.687Z,1.57
2023-03-16T02:05:57.674Z,1.70
2023-03-16T02:08:24.656Z,1.90
2023-03-16T02:10:54.888Z,1.80
2023-03-16T02:13:23.467Z,1.50
2023-03-16T02:15:51.122Z,1.60
2023-03-16T02:18:23.158Z,1.57
2023-03-16T02:20:49.844Z,1.83
2023-03-16T02:23:21.197Z,1.87
2023-03-16T02:25:53.720Z,1.70
2023-03-16T02:28:48.369Z,1.70
2023-03-16T02:31:17.232Z,1.70
2023-03-16T02:33:45.207Z,1.70
2023-03-16T02:36:14.115Z,1.80
2023-03-16T02:38:41.582Z,1.53
2023-03-16T02:41:18.861Z,2.00
2023-03-16T02:43:52.425Z,2.00
2023-03-16T02:57:32.990Z,1.60
2023-03-16T02:59:59.606Z,1.80
2023-03-16T03:02:26.258Z,1.70
2023-03-16T03:04:54.709Z,1.57
2023-03-16T03:07:21.551Z,1.70
2023-03-16T03:09:56.956Z,2.10
2023-03-16T03:12:23.531Z,1.77
2023-03-16T03:14:50.191Z,1.80
2023-03-16T03:17:17.067Z,1.63
2023-03-16T03:19:43.696Z,2.10
2023-03-16T03:22:10.420Z,1.70
2023-03-16T03:24:37.260Z,1.70
2023-03-16T03:27:05.933Z,1.70
2023-03-16T03:29:34.714Z,1.50
2023-03-16T03:32:02.100Z,1.80
2023-03-16T03:34:29.251Z,1.50
2023-03-16T03:36:55.979Z,1.60
2023-03-16T03:39:22.619Z,1.53
2023-03-16T03:41:49.355Z,2.17
2023-03-16T03:44:15.998Z,1.83
2023-03-16T03:46:52.280Z,1.63
2023-03-16T03:49:18.890Z,1.60
2023-03-16T03:51:45.524Z,1.60
2023-03-16T03:54:12.145Z,1.63
2023-03-16T03:56:38.822Z,1.67
2023-03-16T03:59:05.861Z,1.80
2023-03-16T04:01:32.520Z,1.60
2023-03-16T04:03:59.119Z,1.60
2023-03-16T04:06:25.661Z,2.10
2023-03-16T04:08:54.490Z,1.90
2023-03-16T04:11:21.560Z,1.83
2023-03-16T04:13:48.130Z,1.80
2023-03-16T04:16:16.570Z,2.03
2023-03-16T04:18:43.306Z,1.70
2023-03-16T04:21:13.986Z,1.70
2023-03-16T04:23:40.666Z,1.90
2023-03-16T04:26:07.270Z,1.80
2023-03-16T04:28:33.895Z,1.83
2023-03-16T04:31:05.636Z,1.43
2023-03-16T04:33:32.534Z,1.90
2023-03-16T04:35:59.440Z,1.83
2023-03-16T04:38:26.304Z,1.90
2023-03-16T04:40:52.950Z,1.60
2023-03-16T04:43:19.591Z,1.67
2023-03-16T04:45:46.630Z,1.70
2023-03-16T04:48:13.298Z,1.63
2023-03-16T04:50:40.442Z,1.60
2023-03-16T04:53:07.185Z,1.90
2023-03-16T04:55:33.819Z,1.70
2023-03-16T04:58:00.563Z,1.60
2023-03-16T05:00:28.073Z,2.03
2023-03-16T05:02:54.775Z,1.80
2023-03-16T05:05:21.748Z,1.97
2023-03-16T05:07:49.384Z,1.70
2023-03-16T05:10:17.329Z,1.90
2023-03-16T05:12:43.974Z,1.87
2023-03-16T05:15:11.012Z,1.73
2023-03-16T05:17:37.931Z,3.17
2023-03-16T05:20:08.481Z,3.07
2023-03-16T05:22:38.193Z,3.80
2023-03-16T05:25:05.726Z,2.90
2023-03-16T05:27:32.320Z,2.70
2023-03-16T05:29:59.045Z,3.43
2023-03-16T05:32:25.708Z,2.80
2023-03-16T05:34:53.302Z,2.47
2023-03-16T05:37:21.070Z,2.50
2023-03-16T05:39:47.913Z,2.70
2023-03-16T05:42:14.476Z,2.53
2023-03-16T05:44:41.176Z,2.40
2023-03-16T05:47:07.818Z,3.60
2023-03-16T05:49:34.539Z,2.50
2023-03-16T05:52:01.113Z,2.53
2023-03-16T05:54:27.624Z,3.07
2023-03-16T05:56:54.749Z,6.93
2023-03-16T05:59:21.326Z,5.67
2023-03-16T06:01:49.538Z,2.30
2023-03-16T06:04:16.412Z,2.30
2023-03-16T06:06:43.688Z,2.30
2023-03-16T06:09:10.449Z,2.00
2023-03-16T06:11:37.000Z,1.90
2023-03-16T06:14:03.561Z,1.97
2023-03-16T06:16:30.196Z,2.10
2023-03-16T06:18:59.220Z,2.63
2023-03-16T06:21:26.197Z,2.27
2023-03-16T06:23:52.806Z,2.73
2023-03-16T06:26:19.335Z,2.30
2023-03-16T06:28:45.888Z,2.50
2023-03-16T06:31:14.520Z,2.33
2023-03-16T06:33:44.466Z,2.60
2023-03-16T06:36:12.169Z,3.17
2023-03-16T06:38:38.875Z,2.43
2023-03-16T06:41:05.670Z,2.10
2023-03-16T06:43:32.292Z,2.80
2023-03-16T06:49:39.094Z,5.60
2023-03-16T06:52:08.095Z,5.17
2023-03-16T06:54:35.399Z,4.53
2023-03-16T06:57:02.097Z,4.00
2023-03-16T06:59:28.900Z,3.30
2023-03-16T07:02:07.335Z,2.90
2023-03-16T07:04:43.022Z,3.70
2023-03-16T07:07:18.028Z,6.33
2023-03-16T07:09:53.329Z,2.63
2023-03-16T07:12:19.905Z,2.80
2023-03-16T07:14:50.078Z,1.80
2023-03-16T07:17:17.916Z,2.00
2023-03-16T07:19:44.581Z,2.50
2023-03-16T07:22:11.213Z,2.17
2023-03-16T07:24:37.958Z,2.40
2023-03-16T07:27:04.759Z,2.00
2023-03-16T07:29:31.336Z,2.03
2023-03-16T07:31:57.986Z,1.93
2023-03-16T07:34:27.557Z,1.77
2023-03-16T07:36:54.186Z,1.80
2023-03-16T07:39:21.733Z,2.13
2023-03-16T07:41:48.504Z,2.50
2023-03-16T07:47:55.516Z,3.63
2023-03-16T07:50:22.434Z,3.23
2023-03-16T07:52:49.570Z,1.80
2023-03-16T07:55:16.347Z,1.80
2023-03-16T07:57:48.004Z,2.20
2023-03-16T08:00:15.346Z,1.80
2023-03-16T08:02:42.431Z,1.50
2023-03-16T08:05:13.006Z,1.60
2023-03-16T08:07:39.648Z,1.60
2023-03-16T08:10:07.006Z,2.93
2023-03-16T08:12:33.958Z,4.17
2023-03-16T08:15:00.813Z,1.57
2023-03-16T08:17:27.457Z,1.70
2023-03-16T08:19:54.197Z,1.63
2023-03-16T08:22:21.314Z,2.03
2023-03-16T08:24:49.297Z,1.73
2023-03-16T08:27:16.380Z,1.80
2023-03-16T08:29:43.026Z,1.93
2023-03-16T08:32:09.821Z,1.60
2023-03-16T08:34:36.458Z,1.60
2023-03-16T08:37:03.037Z,1.90
2023-03-16T08:39:30.174Z,2.73
2023-03-16T08:41:57.487Z,2.53
2023-03-16T08:44:24.523Z,2.97
2023-03-16T08:46:52.105Z,2.40
2023-03-16T08:49:21.098Z,4.20
2023-03-16T08:51:47.990Z,3.20
2023-03-16T08:54:15.707Z,1.80
2023-03-16T08:56:43.496Z,5.20
2023-03-16T08:59:19.869Z,2.67
2023-03-16T09:01:55.522Z,1.50
2023-03-16T09:04:22.169Z,1.43
2023-03-16T09:07:05.838Z,1.53
2023-03-16T09:09:35.728Z,1.63
2023-03-16T09:12:02.603Z,1.50
2023-03-16T09:14:29.254Z,1.40
2023-03-16T09:16:57.075Z,1.07
2023-03-16T09:19:25.193Z,1.10
2023-03-16T09:21:51.804Z,1.07
2023-03-16T09:24:18.680Z,1.37
2023-03-16T09:26:45.908Z,1.20
2023-03-16T09:29:13.088Z,2.03
2023-03-16T09:31:39.784Z,1.63
2023-03-16T09:34:06.480Z,1.60
2023-03-16T09:36:33.803Z,1.80
2023-03-16T09:39:00.525Z,1.40
2023-03-16T09:41:30.180Z,1.43
2023-03-16T09:44:08.291Z,1.73
2023-03-16T09:46:36.649Z,1.60
2023-03-16T09:49:03.831Z,1.50
2023-03-16T09:51:38.981Z,1.70
2023-03-16T09:54:12.247Z,1.50
2023-03-16T09:56:40.916Z,1.30
2023-03-16T09:59:15.456Z,1.20
2023-03-16T10:02:05.433Z,1.30
2023-03-16T10:04:42.073Z,1.43
2023-03-16T10:07:15.732Z,1.20
2023-03-16T10:09:48.110Z,1.30
2023-03-16T10:12:16.066Z,1.50
2023-03-16T10:14:54.731Z,2.03
2023-03-16T10:17:26.735Z,1.47
2023-03-16T10:19:54.588Z,1.30
2023-03-16T10:22:21.124Z,1.20
2023-03-16T10:24:47.823Z,1.80
2023-03-16T10:27:20.774Z,1.63
2023-03-16T10:29:47.806Z,1.50
2023-03-16T10:32:16.764Z,1.80
2023-03-16T10:34:45.534Z,1.80
2023-03-16T10:37:13.878Z,2.07
2023-03-16T10:39:43.572Z,1.40
2023-03-16T10:42:20.668Z,1.40
2023-03-16T10:44:47.719Z,2.43
2023-03-16T10:47:18.821Z,1.33
2023-03-16T10:49:49.173Z,1.50
2023-03-16T10:52:16.217Z,1.40
2023-03-16T10:54:47.982Z,1.90
2023-03-16T10:57:21.029Z,1.90
2023-03-16T10:59:49.155Z,2.40
2023-03-16T11:02:17.215Z,1.67
2023-03-16T11:04:44.192Z,0.90
2023-03-16T11:07:15.930Z,1.70
2023-03-16T11:09:43.268Z,1.00
2023-03-16T11:12:22.632Z,1.20
2023-03-16T11:14:49.367Z,0.80
2023-03-16T11:17:16.476Z,1.03
2023-03-16T11:19:59.441Z,0.80
2023-03-16T11:22:27.553Z,1.33
2023-03-16T11:25:01.013Z,1.60
2023-03-16T11:27:35.645Z,2.33
2023-03-16T11:30:02.324Z,2.00
2023-03-16T11:32:36.067Z,2.03
2023-03-16T11:35:08.229Z,1.70
2023-03-16T11:38:00.777Z,2.10
2023-03-16T11:40:42.734Z,1.73
2023-03-16T11:43:38.814Z,1.00
2023-03-16T11:46:25.457Z,0.90
2023-03-16T11:49:12.551Z,1.00
2023-03-16T11:51:57.122Z,1.03
2023-03-16T11:54:35.882Z,1.13
2023-03-16T11:57:33.100Z,1.30
2023-03-16T12:00:24.187Z,1.10
2023-03-16T12:02:50.811Z,1.20
2023-03-16T12:05:18.724Z,1.20
2023-03-16T12:08:13.636Z,1.27
2023-03-16T12:10:43.855Z,1.23
2023-03-16T12:13:30.808Z,1.40
2023-03-16T12:16:01.795Z,1.30
2023-03-16T12:18:31.412Z,1.23
2023-03-16T12:21:00.992Z,1.17
2023-03-16T12:23:30.609Z,1.30
2023-03-16T12:26:00.182Z,1.10
2023-03-16T12:28:28.218Z,1.40
2023-03-16T12:31:01.899Z,1.37
2023-03-16T12:33:59.352Z,1.23
2023-03-16T12:36:34.055Z,1.30
2023-03-16T12:39:26.928Z,1.30
2023-03-16T12:42:20.780Z,1.50
2023-03-16T12:44:49.020Z,1.50
2023-03-16T12:47:32.888Z,1.97
2023-03-16T12:50:14.687Z,1.50
2023-03-16T12:52:43.392Z,1.50
2023-03-16T12:55:17.802Z,2.03
2023-03-16T12:57:45.782Z,1.70
2023-03-16T13:00:14.047Z,1.60
2023-03-16T13:02:45.399Z,1.53
2023-03-16T13:05:14.080Z,1.70
2023-03-16T13:07:50.947Z,1.63
2023-03-16T13:10:20.965Z,1.37
2023-03-16T13:12:48.219Z,1.00
2023-03-16T13:15:19.699Z,1.00
2023-03-16T13:17:50.312Z,1.30
2023-03-16T13:20:30.389Z,1.50
2023-03-16T13:23:22.333Z,1.30
2023-03-16T13:25:58.289Z,0.90
2023-03-16T13:28:28.068Z,1.47
2023-03-16T13:30:54.759Z,2.43
2023-03-16T13:33:26.512Z,1.90
2023-03-16T13:35:54.517Z,1.50
2023-03-16T13:38:22.856Z,1.60
2023-03-16T13:40:51.891Z,1.67
2023-03-16T13:43:29.009Z,2.50
2023-03-16T13:45:55.982Z,2.30
2023-03-16T13:48:22.844Z,4.10
2023-03-16T13:50:53.464Z,3.87
2023-03-16T13:53:30.344Z,2.53
2023-03-16T13:55:58.265Z,3.20
2023-03-16T13:58:26.192Z,2.60
2023-03-16T14:01:00.543Z,2.93
2023-03-16T14:03:45.551Z,2.63
2023-03-16T14:06:49.648Z,1.90
2023-03-16T14:09:22.024Z,1.70
2023-03-16T14:11:49.388Z,1.57
2023-03-16T14:14:17.245Z,1.10
2023-03-16T14:16:44.415Z,1.73
2023-03-16T14:19:25.892Z,1.53
2023-03-16T14:21:52.575Z,1.83
2023-03-16T14:24:42.702Z,1.43
2023-03-16T14:27:15.882Z,1.20
2023-03-16T14:29:43.602Z,1.37
2023-03-16T14:32:28.129Z,1.00
2023-03-16T14:35:03.067Z,1.50
2023-03-16T14:37:36.471Z,1.83
2023-03-16T14:40:06.276Z,1.50
2023-03-16T14:42:33.152Z,1.47
2023-03-16T14:45:00.947Z,1.60
2023-03-16T14:47:29.656Z,1.30
2023-03-16T14:49:57.558Z,1.30
2023-03-16T14:52:27.432Z,1.10
2023-03-16T14:54:58.434Z,1.43
2023-03-16T14:57:26.365Z,1.40
2023-03-16T14:59:53.192Z,1.70
2023-03-16T15:02:28.477Z,2.00
2023-03-16T15:04:55.994Z,1.77
2023-03-16T15:07:27.651Z,1.53
2023-03-16T15:09:55.425Z,1.83
2023-03-16T15:12:24.788Z,2.10
2023-03-16T15:15:10.350Z,1.90
2023-03-16T15:17:37.279Z,2.30
2023-03-16T15:20:04.155Z,1.90
2023-03-16T15:22:42.083Z,1.43
2023-03-16T15:25:12.015Z,2.60
2023-03-16T15:27:38.643Z,1.40
2023-03-16T15:30:07.538Z,1.53
2023-03-16T15:32:34.187Z,1.77
2023-03-16T15:35:02.068Z,1.47
2023-03-16T15:37:30.368Z,2.40
2023-03-16T15:39:56.919Z,1.50
2023-03-16T15:42:25.964Z,2.00
2023-03-16T15:44:52.790Z,2.27
2023-03-16T15:47:19.487Z,1.83
2023-03-16T15:49:48.205Z,2.20
2023-03-16T15:52:35.381Z,1.50
2023-03-16T15:55:07.850Z,2.20
2023-03-16T15:57:35.166Z,2.33
2023-03-16T16:00:02.133Z,2.40
2023-03-16T16:02:30.495Z,2.03
2023-03-16T16:04:57.585Z,2.27
2023-03-16T16:07:24.304Z,2.00
2023-03-16T16:09:51.322Z,1.80
2023-03-16T16:12:18.466Z,2.20
2023-03-16T16:14:45.612Z,2.33
2023-03-16T16:17:15.873Z,2.70
2023-03-16T16:19:42.838Z,3.00
2023-03-16T16:22:12.112Z,3.47
2023-03-16T16:24:38.944Z,3.37
2023-03-16T16:27:06.791Z,3.03
2023-03-16T16:29:35.116Z,2.60
2023-03-16T16:32:02.169Z,1.90
2023-03-16T16:34:28.987Z,1.87
2023-03-16T16:36:56.555Z,1.53
2023-03-16T16:39:23.457Z,2.07
2023-03-16T16:41:51.519Z,2.20
2023-03-16T16:44:23.746Z,1.80
2023-03-16T16:46:50.924Z,1.73
2023-03-16T16:49:28.440Z,2.20
2023-03-16T16:51:55.589Z,1.97
2023-03-16T16:54:26.345Z,8.20
2023-03-16T16:57:19.850Z,7.93
2023-03-16T16:59:48.101Z,5.07
2023-03-16T17:02:28.593Z,4.30
2023-03-16T17:04:55.350Z,3.20
2023-03-16T17:07:22.098Z,3.90
2023-03-16T17:09:49.049Z,5.13
2023-03-16T17:12:18.029Z,7.17
2023-03-16T17:14:44.973Z,8.70
2023-03-16T17:17:13.796Z,7.40
2023-03-16T17:19:40.621Z,13.00
2023-03-16T17:22:17.305Z,19.03
2023-03-16T17:24:43.984Z,8.67
2023-03-16T17:27:14.288Z,7.33
2023-03-16T17:29:42.872Z,6.77
2023-03-16T17:32:27.711Z,7.80
2023-03-16T17:34:54.394Z,12.83
2023-03-16T17:37:22.293Z,42.70
2023-03-16T17:39:52.805Z,64.57
2023-03-16T17:42:20.348Z,41.83
2023-03-16T17:44:48.833Z,24.83
2023-03-16T17:47:17.628Z,23.23
2023-03-16T17:49:49.085Z,34.47
2023-03-16T17:52:18.463Z,41.63
2023-03-16T17:54:46.472Z,48.40
2023-03-16T17:57:18.096Z,42.63
2023-03-16T17:59:46.630Z,29.63
2023-03-16T18:02:39.948Z,15.80
2023-03-16T18:05:09.817Z,10.90
2023-03-16T18:07:36.507Z,12.33
2023-03-16T18:10:03.280Z,45.20
2023-03-16T18:12:30.216Z,48.07
2023-03-16T18:14:58.757Z,37.17
2023-03-16T18:17:29.288Z,27.97
2023-03-16T18:19:55.974Z,19.50
2023-03-16T18:22:24.750Z,26.03
2023-03-16T18:24:55.265Z,22.13
2023-03-16T18:27:22.480Z,10.03
2023-03-16T18:29:49.258Z,11.40
2023-03-16T18:32:21.922Z,10.73
2023-03-16T18:34:48.711Z,11.07
2023-03-16T18:37:20.330Z,11.23
2023-03-16T18:39:46.967Z,10.40
2023-03-16T18:42:24.455Z,14.97
2023-03-16T18:44:51.748Z,19.10
2023-03-16T18:47:20.089Z,17.83
2023-03-16T18:49:49.527Z,15.80
2023-03-16T18:52:19.023Z,15.07
2023-03-16T18:54:47.206Z,17.33
2023-03-16T18:57:17.793Z,15.87
2023-03-16T18:59:44.800Z,9.07
2023-03-16T19:02:28.073Z,9.63
2023-03-16T19:04:56.700Z,10.37
2023-03-16T19:07:43.563Z,15.43
2023-03-16T19:10:13.238Z,14.23
2023-03-16T19:12:39.848Z,13.87
2023-03-16T19:15:18.749Z,18.03
2023-03-16T19:18:08.053Z,67.73
2023-03-16T19:20:35.119Z,9.10
2023-03-16T19:23:07.421Z,8.70
2023-03-16T19:25:37.729Z,40.40
2023-03-16T19:28:05.788Z,15.83
2023-03-16T19:30:33.729Z,13.77
2023-03-16T19:33:01.704Z,10.43
2023-03-16T19:35:48.532Z,9.70
2023-03-16T19:38:16.439Z,10.47
2023-03-16T19:40:44.873Z,10.73
2023-03-16T19:43:16.758Z,13.63
2023-03-16T19:45:43.447Z,14.57
2023-03-16T19:48:15.085Z,12.30
2023-03-16T19:50:42.040Z,9.10
2023-03-16T19:53:14.909Z,9.50
2023-03-16T19:55:41.990Z,10.77
2023-03-16T19:58:15.299Z,8.43
2023-03-16T20:00:42.056Z,8.10
2023-03-16T20:03:11.146Z,9.93
2023-03-16T20:05:39.775Z,14.23
2023-03-16T20:08:20.664Z,35.70
2023-03-16T20:10:47.501Z,46.50
2023-03-16T20:13:14.420Z,18.97
2023-03-16T20:15:41.632Z,68.37
2023-03-16T20:18:13.724Z,77.33
2023-03-16T20:20:41.364Z,59.00
2023-03-16T20:23:20.545Z,36.47
2023-03-16T20:25:49.297Z,37.47
2023-03-16T20:31:57.095Z,15.57
2023-03-16T20:34:26.302Z,16.30
2023-03-16T20:36:53.529Z,10.60
2023-03-16T20:39:20.171Z,7.90
2023-03-16T20:41:46.904Z,6.90
2023-03-16T20:44:14.853Z,7.73
2023-03-16T20:46:41.971Z,7.87
2023-03-16T20:49:27.171Z,8.33
2023-03-16T20:51:56.987Z,7.93
2023-03-16T20:54:23.730Z,8.13
2023-03-16T20:56:50.374Z,8.50
2023-03-16T20:59:20.526Z,8.97
2023-03-16T21:01:48.110Z,8.73
2023-03-16T21:04:22.690Z,11.50
2023-03-16T21:06:51.153Z,13.10
2023-03-16T21:09:18.926Z,14.30
2023-03-16T21:11:46.183Z,14.33
2023-03-16T21:14:21.728Z,11.70
2023-03-16T21:16:48.513Z,28.77
2023-03-16T21:19:19.391Z,7.50
2023-03-16T21:21:46.551Z,7.87
2023-03-16T21:24:13.297Z,7.13
2023-03-16T21:26:41.156Z,7.30
2023-03-16T21:29:12.919Z,7.60
2023-03-16T21:31:39.955Z,6.53
2023-03-16T21:34:10.899Z,7.40
2023-03-16T21:36:37.548Z,8.77
2023-03-16T21:39:13.515Z,10.77
2023-03-16T21:41:50.920Z,12.13
2023-03-16T21:44:18.624Z,13.10
2023-03-16T21:46:46.738Z,13.93
2023-03-16T21:49:13.987Z,15.40
2023-03-16T21:51:43.024Z,19.00
2023-03-16T21:54:13.505Z,21.70
2023-03-16T21:56:41.994Z,18.17
2023-03-16T21:59:08.615Z,14.80
2023-03-16T22:01:39.445Z,13.80
2023-03-16T22:04:15.724Z,7.47
2023-03-16T22:06:43.135Z,7.00
2023-03-16T22:09:15.487Z,7.10
2023-03-16T22:11:42.108Z,9.00
2023-03-16T22:14:10.086Z,8.90
2023-03-16T22:16:37.247Z,9.07
2023-03-16T22:19:19.042Z,7.97
2023-03-16T22:25:34.669Z,7.67
2023-03-16T22:28:02.264Z,7.30
2023-03-16T22:30:28.808Z,6.70
2023-03-16T22:32:58.121Z,7.27
2023-03-16T22:35:24.742Z,7.30
2023-03-16T22:37:51.380Z,6.63
2023-03-16T22:40:18.745Z,6.60
2023-03-16T22:42:45.683Z,6.70
2023-03-16T22:45:19.065Z,6.20
2023-03-16T22:47:47.815Z,5.90
2023-03-16T22:50:15.550Z,6.33
2023-03-16T22:52:43.146Z,6.20
2023-03-16T22:55:18.176Z,6.13
2023-03-16T22:57:45.113Z,6.10
2023-03-16T23:00:14.097Z,6.10
2023-03-16T23:02:40.976Z,6.00
2023-03-16T23:08:36.289Z,6.60
2023-03-16T23:11:02.892Z,6.77
2023-03-16T23:13:29.467Z,6.57
2023-03-16T23:15:57.013Z,6.43
2023-03-16T23:18:25.414Z,6.57
2023-03-16T23:20:52.464Z,6.63
2023-03-16T23:23:19.154Z,7.13
2023-03-16T23:25:46.607Z,7.60
2023-03-16T23:28:17.548Z,7.20
2023-03-16T23:30:44.220Z,7.07
2023-03-16T23:33:13.084Z,7.43
2023-03-16T23:35:40.180Z,8.90
2023-03-16T23:38:07.210Z,15.70
2023-03-16T23:40:36.076Z,9.83
2023-03-16T23:43:03.311Z,8.70
2023-03-16T23:45:29.898Z,9.37
2023-03-16T23:47:58.476Z,8.47
2023-03-16T23:50:26.312Z,9.43
2023-03-16T23:52:52.949Z,9.67
2023-03-16T23:55:20.146Z,12.00
2023-03-16T23:57:46.936Z,14.60
